sensor_id;sensor_type;location;lat;lon;timestamp;temperature;humidity
584;HTU21D;27024;54.068;12.116;2022-12-18T00:01:27;-7.71;114.17
584;HTU21D;27024;54.068;12.116;2022-12-18T00:03:55;-7.67;114.51
584;HTU21D;27024;54.068;12.116;2022-12-18T00:06:24;-7.63;114.58
584;HTU21D;27024;54.068;12.116;2022-12-18T00:08:52;-7.59;114.64
584;HTU21D;27024;54.068;12.116;2022-12-18T00:11:21;-7.55;114.67
584;HTU21D;27024;54.068;12.116;2022-12-18T00:13:49;-7.56;114.35
584;HTU21D;27024;54.068;12.116;2022-12-18T00:16:18;-7.56;114.11
584;HTU21D;27024;54.068;12.116;2022-12-18T00:18:52;-7.52;114.09
584;HTU21D;27024;54.068;12.116;2022-12-18T00:21:20;-7.54;113.97
584;HTU21D;27024;54.068;12.116;2022-12-18T00:23:48;-7.55;113.85
584;HTU21D;27024;54.068;12.116;2022-12-18T00:26:18;-7.48;113.67
584;HTU21D;27024;54.068;12.116;2022-12-18T00:28:46;-7.53;113.38
584;HTU21D;27024;54.068;12.116;2022-12-18T00:31:19;-7.60;112.81
584;HTU21D;27024;54.068;12.116;2022-12-18T00:33:47;-7.51;112.74
584;HTU21D;27024;54.068;12.116;2022-12-18T00:36:23;-7.53;112.55
584;HTU21D;27024;54.068;12.116;2022-12-18T00:38:50;-7.56;112.68
584;HTU21D;27024;54.068;12.116;2022-12-18T00:41:18;-7.59;112.57
584;HTU21D;27024;54.068;12.116;2022-12-18T00:44:06;-7.63;112.54
584;HTU21D;27024;54.068;12.116;2022-12-18T00:46:33;-7.76;112.47
584;HTU21D;27024;54.068;12.116;2022-12-18T00:49:00;-7.78;112.41
584;HTU21D;27024;54.068;12.116;2022-12-18T00:51:27;-7.80;111.99
584;HTU21D;27024;54.068;12.116;2022-12-18T00:53:54;-7.83;111.75
584;HTU21D;27024;54.068;12.116;2022-12-18T00:56:21;-7.84;111.69
584;HTU21D;27024;54.068;12.116;2022-12-18T00:58:48;-7.87;112.01
584;HTU21D;27024;54.068;12.116;2022-12-18T01:01:16;-7.79;111.94
584;HTU21D;27024;54.068;12.116;2022-12-18T01:03:43;-7.78;111.45
584;HTU21D;27024;54.068;12.116;2022-12-18T01:06:14;-7.75;111.73
584;HTU21D;27024;54.068;12.116;2022-12-18T01:08:44;-7.71;111.71
584;HTU21D;27024;54.068;12.116;2022-12-18T01:11:16;-7.66;111.49
584;HTU21D;27024;54.068;12.116;2022-12-18T01:13:43;-7.67;111.58
584;HTU21D;27024;54.068;12.116;2022-12-18T01:16:14;-7.65;111.68
584;HTU21D;27024;54.068;12.116;2022-12-18T01:18:42;-7.64;111.58
584;HTU21D;27024;54.068;12.116;2022-12-18T01:21:11;-7.63;111.12
584;HTU21D;27024;54.068;12.116;2022-12-18T01:23:38;-7.65;110.56
584;HTU21D;27024;54.068;12.116;2022-12-18T01:26:12;-7.62;110.13
584;HTU21D;27024;54.068;12.116;2022-12-18T01:28:40;-7.69;109.97
584;HTU21D;27024;54.068;12.116;2022-12-18T01:31:22;-7.66;110.79
584;HTU21D;27024;54.068;12.116;2022-12-18T01:33:50;-7.60;111.74
584;HTU21D;27024;54.068;12.116;2022-12-18T01:36:19;-7.51;112.44
584;HTU21D;27024;54.068;12.116;2022-12-18T01:38:49;-7.37;112.74
584;HTU21D;27024;54.068;12.116;2022-12-18T01:41:19;-7.38;112.91
584;HTU21D;27024;54.068;12.116;2022-12-18T01:43:57;-7.33;113.06
584;HTU21D;27024;54.068;12.116;2022-12-18T01:46:25;-7.32;112.84
584;HTU21D;27024;54.068;12.116;2022-12-18T01:49:00;-7.32;112.56
584;HTU21D;27024;54.068;12.116;2022-12-18T01:51:29;-7.30;112.50
584;HTU21D;27024;54.068;12.116;2022-12-18T01:53:57;-7.27;112.16
584;HTU21D;27024;54.068;12.116;2022-12-18T01:56:24;-7.33;111.76
584;HTU21D;27024;54.068;12.116;2022-12-18T01:59:03;-7.37;111.65
584;HTU21D;27024;54.068;12.116;2022-12-18T02:01:32;-7.45;111.60
584;HTU21D;27024;54.068;12.116;2022-12-18T02:04:24;-7.48;111.28
584;HTU21D;27024;54.068;12.116;2022-12-18T02:07:07;-7.48;110.94
584;HTU21D;27024;54.068;12.116;2022-12-18T02:09:40;-7.57;110.82
584;HTU21D;27024;54.068;12.116;2022-12-18T02:12:31;-7.52;110.70
584;HTU21D;27024;54.068;12.116;2022-12-18T02:15:17;-7.62;110.30
584;HTU21D;27024;54.068;12.116;2022-12-18T02:17:53;-7.66;110.46
584;HTU21D;27024;54.068;12.116;2022-12-18T02:20:32;-7.62;110.24
584;HTU21D;27024;54.068;12.116;2022-12-18T02:23:33;-7.74;110.66
584;HTU21D;27024;54.068;12.116;2022-12-18T02:29:26;-7.72;110.70
584;HTU21D;27024;54.068;12.116;2022-12-18T02:31:56;-7.79;111.42
584;HTU21D;27024;54.068;12.116;2022-12-18T02:34:31;-7.77;111.06
584;HTU21D;27024;54.068;12.116;2022-12-18T02:37:01;-7.72;110.93
584;HTU21D;27024;54.068;12.116;2022-12-18T02:39:29;-7.74;111.07
584;HTU21D;27024;54.068;12.116;2022-12-18T02:41:58;-7.78;111.04
584;HTU21D;27024;54.068;12.116;2022-12-18T02:44:25;-7.78;110.96
584;HTU21D;27024;54.068;12.116;2022-12-18T02:46:53;-7.86;111.11
584;HTU21D;27024;54.068;12.116;2022-12-18T02:49:48;-7.71;112.44
584;HTU21D;27024;54.068;12.116;2022-12-18T02:52:29;-7.76;112.74
584;HTU21D;27024;54.068;12.116;2022-12-18T02:57:56;-7.76;112.95
584;HTU21D;27024;54.068;12.116;2022-12-18T03:00:33;-7.69;113.32
584;HTU21D;27024;54.068;12.116;2022-12-18T03:03:28;-7.56;113.30
584;HTU21D;27024;54.068;12.116;2022-12-18T03:06:01;-7.56;112.97
584;HTU21D;27024;54.068;12.116;2022-12-18T03:08:43;-7.62;112.34
584;HTU21D;27024;54.068;12.116;2022-12-18T03:11:13;-7.54;111.54
584;HTU21D;27024;54.068;12.116;2022-12-18T03:16:14;-7.67;111.42
584;HTU21D;27024;54.068;12.116;2022-12-18T03:18:53;-7.63;111.71
584;HTU21D;27024;54.068;12.116;2022-12-18T03:21:26;-7.62;111.59
584;HTU21D;27024;54.068;12.116;2022-12-18T03:23:55;-7.72;111.01
584;HTU21D;27024;54.068;12.116;2022-12-18T03:26:25;-7.76;111.27
584;HTU21D;27024;54.068;12.116;2022-12-18T03:29:21;-7.74;111.29
584;HTU21D;27024;54.068;12.116;2022-12-18T03:31:53;-7.71;111.52
584;HTU21D;27024;54.068;12.116;2022-12-18T03:34:30;-7.61;111.44
584;HTU21D;27024;54.068;12.116;2022-12-18T03:36:58;-7.63;110.79
584;HTU21D;27024;54.068;12.116;2022-12-18T03:39:24;-7.66;111.16
584;HTU21D;27024;54.068;12.116;2022-12-18T03:41:56;-7.61;111.07
584;HTU21D;27024;54.068;12.116;2022-12-18T03:44:37;-7.64;110.51
584;HTU21D;27024;54.068;12.116;2022-12-18T03:49:46;-7.67;110.18
584;HTU21D;27024;54.068;12.116;2022-12-18T03:52:22;-7.72;109.56
584;HTU21D;27024;54.068;12.116;2022-12-18T03:54:51;-7.72;109.90
584;HTU21D;27024;54.068;12.116;2022-12-18T03:57:21;-7.71;109.93
584;HTU21D;27024;54.068;12.116;2022-12-18T03:59:51;-7.64;110.42
584;HTU21D;27024;54.068;12.116;2022-12-18T04:02:22;-7.61;110.57
584;HTU21D;27024;54.068;12.116;2022-12-18T04:04:52;-7.57;110.20
584;HTU21D;27024;54.068;12.116;2022-12-18T04:07:21;-7.53;110.52
584;HTU21D;27024;54.068;12.116;2022-12-18T04:09:51;-7.50;110.70
584;HTU21D;27024;54.068;12.116;2022-12-18T04:12:19;-7.54;110.04
584;HTU21D;27024;54.068;12.116;2022-12-18T04:14:46;-7.55;110.10
584;HTU21D;27024;54.068;12.116;2022-12-18T04:17:13;-7.57;110.26
584;HTU21D;27024;54.068;12.116;2022-12-18T04:19:40;-7.61;110.58
584;HTU21D;27024;54.068;12.116;2022-12-18T04:22:09;-7.66;110.34
584;HTU21D;27024;54.068;12.116;2022-12-18T04:24:37;-7.67;110.40
584;HTU21D;27024;54.068;12.116;2022-12-18T04:27:04;-7.66;110.69
584;HTU21D;27024;54.068;12.116;2022-12-18T04:29:32;-7.66;110.99
584;HTU21D;27024;54.068;12.116;2022-12-18T04:31:58;-7.72;111.14
584;HTU21D;27024;54.068;12.116;2022-12-18T04:34:26;-7.64;111.31
584;HTU21D;27024;54.068;12.116;2022-12-18T04:36:53;-7.66;111.17
584;HTU21D;27024;54.068;12.116;2022-12-18T04:39:19;-7.55;111.32
584;HTU21D;27024;54.068;12.116;2022-12-18T04:41:46;-7.52;111.08
584;HTU21D;27024;54.068;12.116;2022-12-18T04:44:13;-7.53;110.84
584;HTU21D;27024;54.068;12.116;2022-12-18T04:46:40;-7.50;110.81
584;HTU21D;27024;54.068;12.116;2022-12-18T04:49:07;-7.46;110.58
584;HTU21D;27024;54.068;12.116;2022-12-18T04:51:34;-7.42;110.00
584;HTU21D;27024;54.068;12.116;2022-12-18T04:54:00;-7.65;109.14
584;HTU21D;27024;54.068;12.116;2022-12-18T04:56:27;-7.65;109.10
584;HTU21D;27024;54.068;12.116;2022-12-18T04:58:54;-7.77;108.46
584;HTU21D;27024;54.068;12.116;2022-12-18T05:01:21;-7.82;107.67
584;HTU21D;27024;54.068;12.116;2022-12-18T05:03:47;-7.94;107.20
584;HTU21D;27024;54.068;12.116;2022-12-18T05:06:14;-8.05;107.46
584;HTU21D;27024;54.068;12.116;2022-12-18T05:08:41;-8.08;107.33
584;HTU21D;27024;54.068;12.116;2022-12-18T05:11:10;-8.06;107.65
584;HTU21D;27024;54.068;12.116;2022-12-18T05:13:37;-8.11;107.89
584;HTU21D;27024;54.068;12.116;2022-12-18T05:16:05;-8.05;108.20
584;HTU21D;27024;54.068;12.116;2022-12-18T05:18:32;-8.05;107.91
584;HTU21D;27024;54.068;12.116;2022-12-18T05:20:59;-8.05;107.88
584;HTU21D;27024;54.068;12.116;2022-12-18T05:23:26;-8.13;108.04
584;HTU21D;27024;54.068;12.116;2022-12-18T05:28:22;-8.16;107.84
584;HTU21D;27024;54.068;12.116;2022-12-18T05:30:51;-8.24;107.56
584;HTU21D;27024;54.068;12.116;2022-12-18T05:33:19;-8.26;107.52
584;HTU21D;27024;54.068;12.116;2022-12-18T05:36:06;-8.25;106.86
584;HTU21D;27024;54.068;12.116;2022-12-18T05:38:36;-8.27;106.85
584;HTU21D;27024;54.068;12.116;2022-12-18T05:41:04;-8.29;106.56
584;HTU21D;27024;54.068;12.116;2022-12-18T05:43:34;-8.40;106.04
584;HTU21D;27024;54.068;12.116;2022-12-18T05:46:11;-8.45;106.40
584;HTU21D;27024;54.068;12.116;2022-12-18T05:48:38;-8.44;105.96
584;HTU21D;27024;54.068;12.116;2022-12-18T05:51:07;-8.53;105.76
584;HTU21D;27024;54.068;12.116;2022-12-18T05:53:36;-8.54;105.69
584;HTU21D;27024;54.068;12.116;2022-12-18T05:56:05;-8.65;105.65
584;HTU21D;27024;54.068;12.116;2022-12-18T05:58:33;-8.51;106.63
584;HTU21D;27024;54.068;12.116;2022-12-18T06:01:11;-8.62;106.26
584;HTU21D;27024;54.068;12.116;2022-12-18T06:03:38;-8.64;106.62
584;HTU21D;27024;54.068;12.116;2022-12-18T06:06:20;-8.53;106.37
584;HTU21D;27024;54.068;12.116;2022-12-18T06:08:49;-8.54;105.82
584;HTU21D;27024;54.068;12.116;2022-12-18T06:11:22;-8.54;105.44
584;HTU21D;27024;54.068;12.116;2022-12-18T06:13:51;-8.62;105.18
584;HTU21D;27024;54.068;12.116;2022-12-18T06:16:24;-8.65;104.95
584;HTU21D;27024;54.068;12.116;2022-12-18T06:18:51;-8.67;104.64
584;HTU21D;27024;54.068;12.116;2022-12-18T06:21:18;-8.71;104.44
584;HTU21D;27024;54.068;12.116;2022-12-18T06:23:44;-8.70;103.73
584;HTU21D;27024;54.068;12.116;2022-12-18T06:26:12;-8.71;102.96
584;HTU21D;27024;54.068;12.116;2022-12-18T06:28:39;-8.88;102.49
584;HTU21D;27024;54.068;12.116;2022-12-18T06:31:08;-8.94;102.51
584;HTU21D;27024;54.068;12.116;2022-12-18T06:33:36;-8.92;102.22
584;HTU21D;27024;54.068;12.116;2022-12-18T06:36:06;-8.82;101.64
584;HTU21D;27024;54.068;12.116;2022-12-18T06:38:34;-8.78;101.32
584;HTU21D;27024;54.068;12.116;2022-12-18T06:41:10;-8.92;101.00
584;HTU21D;27024;54.068;12.116;2022-12-18T06:43:37;-8.84;101.11
584;HTU21D;27024;54.068;12.116;2022-12-18T06:46:05;-8.86;101.50
584;HTU21D;27024;54.068;12.116;2022-12-18T06:48:32;-8.95;103.23
584;HTU21D;27024;54.068;12.116;2022-12-18T06:50:59;-9.05;105.23
584;HTU21D;27024;54.068;12.116;2022-12-18T06:53:26;-9.01;105.66
584;HTU21D;27024;54.068;12.116;2022-12-18T06:56:05;-8.96;105.67
584;HTU21D;27024;54.068;12.116;2022-12-18T06:58:39;-8.85;104.95
584;HTU21D;27024;54.068;12.116;2022-12-18T07:01:09;-8.84;105.57
584;HTU21D;27024;54.068;12.116;2022-12-18T07:03:37;-8.86;104.98
584;HTU21D;27024;54.068;12.116;2022-12-18T07:06:05;-6.79;114.41
584;HTU21D;27024;54.068;12.116;2022-12-18T07:08:32;-8.54;105.37
584;HTU21D;27024;54.068;12.116;2022-12-18T07:11:03;-8.77;105.96
584;HTU21D;27024;54.068;12.116;2022-12-18T07:13:30;-8.81;105.72
584;HTU21D;27024;54.068;12.116;2022-12-18T07:16:08;-8.74;106.29
584;HTU21D;27024;54.068;12.116;2022-12-18T07:18:44;-8.74;105.99
584;HTU21D;27024;54.068;12.116;2022-12-18T07:21:15;-8.75;105.21
584;HTU21D;27024;54.068;12.116;2022-12-18T07:23:42;-8.68;104.95
584;HTU21D;27024;54.068;12.116;2022-12-18T07:26:14;-8.82;104.99
584;HTU21D;27024;54.068;12.116;2022-12-18T07:28:42;-8.83;105.09
584;HTU21D;27024;54.068;12.116;2022-12-18T07:31:18;-8.82;105.41
584;HTU21D;27024;54.068;12.116;2022-12-18T07:33:47;-8.72;105.06
584;HTU21D;27024;54.068;12.116;2022-12-18T07:36:14;-8.74;104.47
584;HTU21D;27024;54.068;12.116;2022-12-18T07:38:41;-8.78;103.70
584;HTU21D;27024;54.068;12.116;2022-12-18T07:41:13;-8.84;103.81
584;HTU21D;27024;54.068;12.116;2022-12-18T07:43:41;-8.75;104.16
584;HTU21D;27024;54.068;12.116;2022-12-18T07:46:09;-8.74;103.91
584;HTU21D;27024;54.068;12.116;2022-12-18T07:48:38;-8.75;103.58
584;HTU21D;27024;54.068;12.116;2022-12-18T07:51:06;-8.73;104.10
584;HTU21D;27024;54.068;12.116;2022-12-18T07:53:34;-8.74;104.00
584;HTU21D;27024;54.068;12.116;2022-12-18T07:56:05;-8.65;103.46
584;HTU21D;27024;54.068;12.116;2022-12-18T07:58:52;-8.56;104.41
584;HTU21D;27024;54.068;12.116;2022-12-18T08:01:20;-8.65;104.35
584;HTU21D;27024;54.068;12.116;2022-12-18T08:03:47;-8.42;105.52
584;HTU21D;27024;54.068;12.116;2022-12-18T08:06:15;-8.55;104.60
584;HTU21D;27024;54.068;12.116;2022-12-18T08:08:42;-8.37;105.50
584;HTU21D;27024;54.068;12.116;2022-12-18T08:11:08;-8.27;105.27
584;HTU21D;27024;54.068;12.116;2022-12-18T08:13:35;-8.24;105.72
584;HTU21D;27024;54.068;12.116;2022-12-18T08:16:07;-8.08;106.23
584;HTU21D;27024;54.068;12.116;2022-12-18T08:18:36;-8.00;106.15
584;HTU21D;27024;54.068;12.116;2022-12-18T08:21:09;-6.56;113.10
584;HTU21D;27024;54.068;12.116;2022-12-18T08:23:37;-7.49;106.42
584;HTU21D;27024;54.068;12.116;2022-12-18T08:26:09;-7.59;105.93
584;HTU21D;27024;54.068;12.116;2022-12-18T08:28:36;-7.49;106.19
584;HTU21D;27024;54.068;12.116;2022-12-18T08:31:04;-7.36;105.62
584;HTU21D;27024;54.068;12.116;2022-12-18T08:33:32;-7.25;105.69
584;HTU21D;27024;54.068;12.116;2022-12-18T08:36:00;-7.15;105.57
584;HTU21D;27024;54.068;12.116;2022-12-18T08:38:27;-7.11;105.79
584;HTU21D;27024;54.068;12.116;2022-12-18T08:41:08;-6.70;105.34
584;HTU21D;27024;54.068;12.116;2022-12-18T08:43:35;-6.80;104.69
584;HTU21D;27024;54.068;12.116;2022-12-18T08:46:21;-6.67;104.43
584;HTU21D;27024;54.068;12.116;2022-12-18T08:48:50;-6.62;104.87
584;HTU21D;27024;54.068;12.116;2022-12-18T08:51:17;-6.70;103.59
584;HTU21D;27024;54.068;12.116;2022-12-18T08:53:44;-6.63;104.80
584;HTU21D;27024;54.068;12.116;2022-12-18T08:56:12;-6.62;104.57
584;HTU21D;27024;54.068;12.116;2022-12-18T08:58:39;-6.42;104.18
584;HTU21D;27024;54.068;12.116;2022-12-18T09:01:07;-6.45;104.48
584;HTU21D;27024;54.068;12.116;2022-12-18T09:03:38;-6.36;104.33
584;HTU21D;27024;54.068;12.116;2022-12-18T09:06:06;-6.41;104.24
584;HTU21D;27024;54.068;12.116;2022-12-18T09:08:33;-6.37;104.75
584;HTU21D;27024;54.068;12.116;2022-12-18T09:11:00;-6.32;104.78
584;HTU21D;27024;54.068;12.116;2022-12-18T09:13:27;-6.16;104.57
584;HTU21D;27024;54.068;12.116;2022-12-18T09:15:54;-6.11;103.93
584;HTU21D;27024;54.068;12.116;2022-12-18T09:18:23;-5.97;104.29
584;HTU21D;27024;54.068;12.116;2022-12-18T09:20:50;-5.49;102.12
584;HTU21D;27024;54.068;12.116;2022-12-18T09:23:19;-5.22;101.65
584;HTU21D;27024;54.068;12.116;2022-12-18T09:25:46;-4.67;101.01
584;HTU21D;27024;54.068;12.116;2022-12-18T09:28:15;-4.60;98.32
584;HTU21D;27024;54.068;12.116;2022-12-18T09:30:47;-3.90;95.64
584;HTU21D;27024;54.068;12.116;2022-12-18T09:33:16;-3.68;94.33
584;HTU21D;27024;54.068;12.116;2022-12-18T09:35:44;-3.99;95.32
584;HTU21D;27024;54.068;12.116;2022-12-18T09:38:13;-4.07;92.85
584;HTU21D;27024;54.068;12.116;2022-12-18T09:41:03;-3.61;90.96
584;HTU21D;27024;54.068;12.116;2022-12-18T09:43:39;-3.39;87.22
584;HTU21D;27024;54.068;12.116;2022-12-18T09:46:28;-3.05;91.23
584;HTU21D;27024;54.068;12.116;2022-12-18T09:49:02;-3.06;85.66
584;HTU21D;27024;54.068;12.116;2022-12-18T09:51:37;-3.48;88.46
584;HTU21D;27024;54.068;12.116;2022-12-18T09:54:11;-3.20;86.63
584;HTU21D;27024;54.068;12.116;2022-12-18T09:56:42;-3.13;86.30
584;HTU21D;27024;54.068;12.116;2022-12-18T09:59:37;-2.86;84.52
584;HTU21D;27024;54.068;12.116;2022-12-18T10:02:15;-2.71;82.29
584;HTU21D;27024;54.068;12.116;2022-12-18T10:08:33;-2.98;84.97
584;HTU21D;27024;54.068;12.116;2022-12-18T10:14:30;-2.31;85.42
584;HTU21D;27024;54.068;12.116;2022-12-18T10:17:26;-3.26;88.25
584;HTU21D;27024;54.068;12.116;2022-12-18T10:20:17;-3.23;86.86
584;HTU21D;27024;54.068;12.116;2022-12-18T10:25:58;-3.54;95.42
584;HTU21D;27024;54.068;12.116;2022-12-18T10:28:29;-2.36;96.34
584;HTU21D;27024;54.068;12.116;2022-12-18T10:30:56;-3.21;87.48
584;HTU21D;27024;54.068;12.116;2022-12-18T10:33:27;-3.35;88.18
584;HTU21D;27024;54.068;12.116;2022-12-18T10:35:54;-3.81;92.28
584;HTU21D;27024;54.068;12.116;2022-12-18T10:41:05;-3.33;89.37
584;HTU21D;27024;54.068;12.116;2022-12-18T10:43:38;-2.74;87.16
584;HTU21D;27024;54.068;12.116;2022-12-18T10:48:39;-2.46;86.45
584;HTU21D;27024;54.068;12.116;2022-12-18T10:51:07;-2.56;85.36
584;HTU21D;27024;54.068;12.116;2022-12-18T10:53:40;-2.51;85.19
584;HTU21D;27024;54.068;12.116;2022-12-18T10:56:08;-2.86;87.52
584;HTU21D;27024;54.068;12.116;2022-12-18T10:58:36;-2.59;86.26
584;HTU21D;27024;54.068;12.116;2022-12-18T11:01:13;-2.58;85.55
584;HTU21D;27024;54.068;12.116;2022-12-18T11:03:45;-2.45;84.87
584;HTU21D;27024;54.068;12.116;2022-12-18T11:06:13;-2.64;85.90
584;HTU21D;27024;54.068;12.116;2022-12-18T11:08:42;-2.98;86.66
584;HTU21D;27024;54.068;12.116;2022-12-18T11:11:23;-2.75;86.95
584;HTU21D;27024;54.068;12.116;2022-12-18T11:14:05;-3.08;87.95
584;HTU21D;27024;54.068;12.116;2022-12-18T11:16:51;-3.16;89.34
584;HTU21D;27024;54.068;12.116;2022-12-18T11:19:39;-3.01;89.43
584;HTU21D;27024;54.068;12.116;2022-12-18T11:22:39;-2.81;87.70
584;HTU21D;27024;54.068;12.116;2022-12-18T11:25:18;-3.23;89.99
584;HTU21D;27024;54.068;12.116;2022-12-18T11:28:03;-3.49;90.86
584;HTU21D;27024;54.068;12.116;2022-12-18T11:30:33;-3.52;91.66
584;HTU21D;27024;54.068;12.116;2022-12-18T11:33:14;-3.68;93.85
584;HTU21D;27024;54.068;12.116;2022-12-18T11:38:24;-3.85;94.78
584;HTU21D;27024;54.068;12.116;2022-12-18T11:41:21;-4.04;97.10
584;HTU21D;27024;54.068;12.116;2022-12-18T11:43:55;-3.97;96.58
584;HTU21D;27024;54.068;12.116;2022-12-18T11:46:36;-3.61;97.19
584;HTU21D;27024;54.068;12.116;2022-12-18T11:49:12;-3.89;96.93
584;HTU21D;27024;54.068;12.116;2022-12-18T11:52:08;-3.76;95.76
584;HTU21D;27024;54.068;12.116;2022-12-18T11:54:36;-3.91;96.84
584;HTU21D;27024;54.068;12.116;2022-12-18T11:57:36;-3.91;97.90
584;HTU21D;27024;54.068;12.116;2022-12-18T12:05:43;-4.01;98.70
584;HTU21D;27024;54.068;12.116;2022-12-18T12:11:23;-4.25;100.89
584;HTU21D;27024;54.068;12.116;2022-12-18T12:17:00;-4.16;101.16
584;HTU21D;27024;54.068;12.116;2022-12-18T12:20:16;-4.05;101.48
584;HTU21D;27024;54.068;12.116;2022-12-18T12:26:14;-3.87;100.90
584;HTU21D;27024;54.068;12.116;2022-12-18T12:29:09;-3.84;100.82
584;HTU21D;27024;54.068;12.116;2022-12-18T12:32:45;-3.64;100.27
584;HTU21D;27024;54.068;12.116;2022-12-18T12:38:05;-3.68;100.41
584;HTU21D;27024;54.068;12.116;2022-12-18T12:40:41;-3.67;100.44
584;HTU21D;27024;54.068;12.116;2022-12-18T12:43:31;-3.80;102.15
584;HTU21D;27024;54.068;12.116;2022-12-18T12:46:07;-3.90;101.77
584;HTU21D;27024;54.068;12.116;2022-12-18T12:53:47;-4.15;103.36
584;HTU21D;27024;54.068;12.116;2022-12-18T12:56:18;-4.24;104.01
584;HTU21D;27024;54.068;12.116;2022-12-18T13:06:58;-4.34;104.76
584;HTU21D;27024;54.068;12.116;2022-12-18T13:09:32;-4.30;104.56
584;HTU21D;27024;54.068;12.116;2022-12-18T13:12:08;-4.35;105.50
584;HTU21D;27024;54.068;12.116;2022-12-18T13:15:13;-4.27;104.79
584;HTU21D;27024;54.068;12.116;2022-12-18T13:17:46;-4.24;105.02
584;HTU21D;27024;54.068;12.116;2022-12-18T13:20:14;-4.16;104.38
584;HTU21D;27024;54.068;12.116;2022-12-18T13:22:45;-4.09;103.69
584;HTU21D;27024;54.068;12.116;2022-12-18T13:28:12;-4.11;103.00
584;HTU21D;27024;54.068;12.116;2022-12-18T13:30:47;-4.26;103.92
584;HTU21D;27024;54.068;12.116;2022-12-18T13:41:34;-4.35;103.66
584;HTU21D;27024;54.068;12.116;2022-12-18T13:47:32;-4.50;105.36
584;HTU21D;27024;54.068;12.116;2022-12-18T13:50:02;-4.43;104.85
584;HTU21D;27024;54.068;12.116;2022-12-18T13:52:38;-4.50;105.28
584;HTU21D;27024;54.068;12.116;2022-12-18T13:55:15;-4.56;105.92
584;HTU21D;27024;54.068;12.116;2022-12-18T13:57:43;-4.52;105.96
584;HTU21D;27024;54.068;12.116;2022-12-18T14:02:52;-4.52;106.27
584;HTU21D;27024;54.068;12.116;2022-12-18T14:05:23;-3.30;106.79
584;HTU21D;27024;54.068;12.116;2022-12-18T14:07:52;-4.23;107.18
584;HTU21D;27024;54.068;12.116;2022-12-18T14:10:21;-4.25;106.95
584;HTU21D;27024;54.068;12.116;2022-12-18T14:13:09;-4.46;106.66
584;HTU21D;27024;54.068;12.116;2022-12-18T14:15:46;-4.50;106.33
584;HTU21D;27024;54.068;12.116;2022-12-18T14:20:48;-4.54;106.03
584;HTU21D;27024;54.068;12.116;2022-12-18T14:23:35;-4.64;105.83
584;HTU21D;27024;54.068;12.116;2022-12-18T14:26:23;-4.70;106.03
584;HTU21D;27024;54.068;12.116;2022-12-18T14:28:51;-4.74;106.27
584;HTU21D;27024;54.068;12.116;2022-12-18T14:31:22;-4.76;105.92
584;HTU21D;27024;54.068;12.116;2022-12-18T14:33:51;-4.73;105.75
584;HTU21D;27024;54.068;12.116;2022-12-18T14:36:27;-4.75;105.53
584;HTU21D;27024;54.068;12.116;2022-12-18T14:38:56;-4.97;105.77
584;HTU21D;27024;54.068;12.116;2022-12-18T14:41:24;-5.01;106.42
584;HTU21D;27024;54.068;12.116;2022-12-18T14:43:52;-5.10;107.11
584;HTU21D;27024;54.068;12.116;2022-12-18T14:46:34;-5.11;107.91
584;HTU21D;27024;54.068;12.116;2022-12-18T14:51:50;-5.16;108.11
584;HTU21D;27024;54.068;12.116;2022-12-18T14:54:19;-5.22;108.33
584;HTU21D;27024;54.068;12.116;2022-12-18T14:56:49;-5.19;108.38
584;HTU21D;27024;54.068;12.116;2022-12-18T14:59:22;-5.22;108.42
584;HTU21D;27024;54.068;12.116;2022-12-18T15:04:45;-5.17;110.04
584;HTU21D;27024;54.068;12.116;2022-12-18T15:07:17;-5.19;110.47
584;HTU21D;27024;54.068;12.116;2022-12-18T15:12:45;-5.17;110.46
584;HTU21D;27024;54.068;12.116;2022-12-18T15:20:31;-5.17;110.20
584;HTU21D;27024;54.068;12.116;2022-12-18T15:22:59;-5.18;110.29
584;HTU21D;27024;54.068;12.116;2022-12-18T15:25:31;-5.18;110.39
584;HTU21D;27024;54.068;12.116;2022-12-18T15:27:58;-5.18;110.13
584;HTU21D;27024;54.068;12.116;2022-12-18T15:30:25;-5.20;110.13
584;HTU21D;27024;54.068;12.116;2022-12-18T15:33:17;-5.20;110.21
584;HTU21D;27024;54.068;12.116;2022-12-18T15:36:05;-5.27;109.55
584;HTU21D;27024;54.068;12.116;2022-12-18T15:38:32;-5.41;109.58
584;HTU21D;27024;54.068;12.116;2022-12-18T15:40:59;-5.35;109.84
584;HTU21D;27024;54.068;12.116;2022-12-18T15:43:26;-5.37;109.49
584;HTU21D;27024;54.068;12.116;2022-12-18T15:46:11;-5.40;109.49
584;HTU21D;27024;54.068;12.116;2022-12-18T15:48:45;-5.44;109.62
584;HTU21D;27024;54.068;12.116;2022-12-18T15:51:45;-5.42;109.46
584;HTU21D;27024;54.068;12.116;2022-12-18T15:54:15;-5.52;109.16
584;HTU21D;27024;54.068;12.116;2022-12-18T15:57:09;-5.60;109.43
584;HTU21D;27024;54.068;12.116;2022-12-18T15:59:55;-5.42;110.03
584;HTU21D;27024;54.068;12.116;2022-12-18T16:02:25;-5.57;109.37
584;HTU21D;27024;54.068;12.116;2022-12-18T16:04:52;-5.65;109.33
584;HTU21D;27024;54.068;12.116;2022-12-18T16:07:20;-5.73;109.68
584;HTU21D;27024;54.068;12.116;2022-12-18T16:09:52;-5.65;109.60
584;HTU21D;27024;54.068;12.116;2022-12-18T16:12:21;-5.75;109.03
584;HTU21D;27024;54.068;12.116;2022-12-18T16:14:48;-5.84;109.35
584;HTU21D;27024;54.068;12.116;2022-12-18T16:17:15;-5.85;109.37
584;HTU21D;27024;54.068;12.116;2022-12-18T16:19:43;-5.84;109.95
584;HTU21D;27024;54.068;12.116;2022-12-18T16:22:24;-5.82;109.82
584;HTU21D;27024;54.068;12.116;2022-12-18T16:24:53;-5.83;109.60
584;HTU21D;27024;54.068;12.116;2022-12-18T16:27:21;-5.90;109.81
584;HTU21D;27024;54.068;12.116;2022-12-18T16:29:49;-5.82;110.00
584;HTU21D;27024;54.068;12.116;2022-12-18T16:32:19;-5.89;110.04
584;HTU21D;27024;54.068;12.116;2022-12-18T16:34:46;-5.90;110.26
584;HTU21D;27024;54.068;12.116;2022-12-18T16:37:14;-5.88;109.86
584;HTU21D;27024;54.068;12.116;2022-12-18T16:39:41;-5.85;109.88
584;HTU21D;27024;54.068;12.116;2022-12-18T16:42:12;-5.87;109.58
584;HTU21D;27024;54.068;12.116;2022-12-18T16:44:41;-5.92;109.74
584;HTU21D;27024;54.068;12.116;2022-12-18T16:47:08;-6.04;110.10
584;HTU21D;27024;54.068;12.116;2022-12-18T16:49:38;-6.02;110.22
584;HTU21D;27024;54.068;12.116;2022-12-18T16:52:05;-5.99;110.22
584;HTU21D;27024;54.068;12.116;2022-12-18T16:54:32;-5.96;109.90
584;HTU21D;27024;54.068;12.116;2022-12-18T16:57:03;-6.04;110.09
584;HTU21D;27024;54.068;12.116;2022-12-18T16:59:31;-6.02;110.08
584;HTU21D;27024;54.068;12.116;2022-12-18T17:01:58;-6.01;110.11
584;HTU21D;27024;54.068;12.116;2022-12-18T17:04:25;-5.96;110.13
584;HTU21D;27024;54.068;12.116;2022-12-18T17:06:51;-5.96;109.87
584;HTU21D;27024;54.068;12.116;2022-12-18T17:09:20;-5.98;109.81
584;HTU21D;27024;54.068;12.116;2022-12-18T17:11:53;-6.03;109.72
584;HTU21D;27024;54.068;12.116;2022-12-18T17:14:23;-5.99;109.62
584;HTU21D;27024;54.068;12.116;2022-12-18T17:16:51;-5.96;109.00
584;HTU21D;27024;54.068;12.116;2022-12-18T17:19:39;-6.07;109.05
584;HTU21D;27024;54.068;12.116;2022-12-18T17:22:06;-6.12;109.20
584;HTU21D;27024;54.068;12.116;2022-12-18T17:24:34;-6.08;109.10
584;HTU21D;27024;54.068;12.116;2022-12-18T17:27:03;-6.03;108.98